sensor_id;sensor_type;location;lat;lon;timestamp;pressure;altitude;pressure_sealevel;temperature;humidity
73383;BME280;61600;48.126;11.542;2022-10-16T00:02:16;95673.56;;;16.80;70.38
73383;BME280;61600;48.126;11.542;2022-10-16T00:04:42;95670.66;;;16.85;70.77
73383;BME280;61600;48.126;11.542;2022-10-16T00:07:11;95669.03;;;16.84;70.29
73383;BME280;61600;48.126;11.542;2022-10-16T00:09:36;95668.53;;;16.82;70.97
73383;BME280;61600;48.126;11.542;2022-10-16T00:12:02;95666.13;;;16.72;70.71
73383;BME280;61600;48.126;11.542;2022-10-16T00:14:32;95673.88;;;16.61;71.42
73383;BME280;61600;48.126;11.542;2022-10-16T00:16:58;95676.97;;;16.60;71.08
73383;BME280;61600;48.126;11.542;2022-10-16T00:19:23;95678.84;;;16.50;71.92
73383;BME280;61600;48.126;11.542;2022-10-16T00:21:57;95680.34;;;16.74;71.02
73383;BME280;61600;48.126;11.542;2022-10-16T00:24:23;95678.09;;;16.76;70.39
73383;BME280;61600;48.126;11.542;2022-10-16T00:26:49;95676.31;;;16.63;70.81
73383;BME280;61600;48.126;11.542;2022-10-16T00:29:15;95678.22;;;16.54;70.82
73383;BME280;61600;48.126;11.542;2022-10-16T00:31:41;95679.31;;;16.44;71.37
73383;BME280;61600;48.126;11.542;2022-10-16T00:34:09;95679.63;;;16.34;71.50
73383;BME280;61600;48.126;11.542;2022-10-16T00:36:35;95682.84;;;16.27;72.12
73383;BME280;61600;48.126;11.542;2022-10-16T00:39:01;95678.66;;;16.30;72.02
73383;BME280;61600;48.126;11.542;2022-10-16T00:41:27;95674.66;;;16.36;71.71
73383;BME280;61600;48.126;11.542;2022-10-16T00:43:56;95667.53;;;16.43;71.35
73383;BME280;61600;48.126;11.542;2022-10-16T00:49:16;95669.00;;;16.41;70.50
73383;BME280;61600;48.126;11.542;2022-10-16T00:51:48;95681.59;;;16.42;70.44
73383;BME280;61600;48.126;11.542;2022-10-16T00:54:18;95683.19;;;16.34;71.28
73383;BME280;61600;48.126;11.542;2022-10-16T00:56:45;95672.06;;;16.39;71.25
73383;BME280;61600;48.126;11.542;2022-10-16T00:59:16;95673.66;;;16.40;70.58
73383;BME280;61600;48.126;11.542;2022-10-16T01:01:47;95669.16;;;16.44;71.04
73383;BME280;61600;48.126;11.542;2022-10-16T01:04:13;95684.97;;;16.47;70.86
73383;BME280;61600;48.126;11.542;2022-10-16T01:09:23;95685.97;;;16.43;71.25
73383;BME280;61600;48.126;11.542;2022-10-16T01:15:08;95684.97;;;16.47;71.33
73383;BME280;61600;48.126;11.542;2022-10-16T01:17:43;95696.78;;;16.48;70.57
73383;BME280;61600;48.126;11.542;2022-10-16T01:22:58;95702.09;;;16.44;71.82
73383;BME280;61600;48.126;11.542;2022-10-16T01:25:44;95704.19;;;16.47;71.42
73383;BME280;61600;48.126;11.542;2022-10-16T01:28:16;95694.69;;;16.54;71.06
73383;BME280;61600;48.126;11.542;2022-10-16T01:30:44;95701.53;;;16.73;70.24
73383;BME280;61600;48.126;11.542;2022-10-16T01:33:21;95694.25;;;16.77;69.90
73383;BME280;61600;48.126;11.542;2022-10-16T01:35:56;95694.56;;;16.76;70.06
73383;BME280;61600;48.126;11.542;2022-10-16T01:38:34;95688.44;;;16.70;70.19
73383;BME280;61600;48.126;11.542;2022-10-16T01:41:12;95693.94;;;16.70;69.84
73383;BME280;61600;48.126;11.542;2022-10-16T01:43:49;95690.19;;;16.75;69.80
73383;BME280;61600;48.126;11.542;2022-10-16T01:46:22;95685.69;;;16.70;70.15
73383;BME280;61600;48.126;11.542;2022-10-16T01:48:48;95693.75;;;16.84;70.12
73383;BME280;61600;48.126;11.542;2022-10-16T01:51:17;95691.81;;;16.84;69.85
73383;BME280;61600;48.126;11.542;2022-10-16T01:53:48;95682.13;;;16.87;69.06
73383;BME280;61600;48.126;11.542;2022-10-16T01:56:15;95679.88;;;16.80;69.33
73383;BME280;61600;48.126;11.542;2022-10-16T01:58:50;95683.75;;;16.88;69.46
73383;BME280;61600;48.126;11.542;2022-10-16T02:01:19;95681.00;;;16.71;70.07
73383;BME280;61600;48.126;11.542;2022-10-16T02:03:46;95675.34;;;16.76;69.48
73383;BME280;61600;48.126;11.542;2022-10-16T02:06:18;95679.38;;;16.70;69.42
73383;BME280;61600;48.126;11.542;2022-10-16T02:08:43;95676.31;;;16.63;69.89
73383;BME280;61600;48.126;11.542;2022-10-16T02:11:10;95672.25;;;16.69;69.57
73383;BME280;61600;48.126;11.542;2022-10-16T02:13:45;95665.97;;;16.77;68.82
73383;BME280;61600;48.126;11.542;2022-10-16T02:16:12;95667.91;;;16.76;68.71
73383;BME280;61600;48.126;11.542;2022-10-16T02:18:42;95670.50;;;16.73;68.74
73383;BME280;61600;48.126;11.542;2022-10-16T02:21:29;95672.75;;;16.71;68.72
73383;BME280;61600;48.126;11.542;2022-10-16T02:24:21;95677.91;;;16.72;68.68
73383;BME280;61600;48.126;11.542;2022-10-16T02:29:47;95675.69;;;16.74;68.41
73383;BME280;61600;48.126;11.542;2022-10-16T02:32:19;95675.19;;;16.64;69.44
73383;BME280;61600;48.126;11.542;2022-10-16T02:34:48;95684.50;;;16.54;69.77
73383;BME280;61600;48.126;11.542;2022-10-16T02:37:16;95690.63;;;16.51;69.43
73383;BME280;61600;48.126;11.542;2022-10-16T02:39:43;95697.56;;;16.40;70.06
73383;BME280;61600;48.126;11.542;2022-10-16T02:42:13;95695.47;;;16.37;70.03
73383;BME280;61600;48.126;11.542;2022-10-16T02:44:39;95694.03;;;16.39;70.34
73383;BME280;61600;48.126;11.542;2022-10-16T02:47:05;95695.31;;;16.42;69.89
73383;BME280;61600;48.126;11.542;2022-10-16T02:49:31;95700.13;;;16.36;70.23
73383;BME280;61600;48.126;11.542;2022-10-16T02:51:56;95697.41;;;16.36;69.82
73383;BME280;61600;48.126;11.542;2022-10-16T02:54:22;95706.91;;;16.30;70.16
73383;BME280;61600;48.126;11.542;2022-10-16T02:56:48;95706.28;;;16.25;70.74
73383;BME280;61600;48.126;11.542;2022-10-16T02:59:13;95689.94;;;16.20;70.16
73383;BME280;61600;48.126;11.542;2022-10-16T03:01:39;95708.84;;;16.21;70.61
73383;BME280;61600;48.126;11.542;2022-10-16T03:04:05;95711.09;;;16.19;70.33
73383;BME280;61600;48.126;11.542;2022-10-16T03:06:30;95705.13;;;16.26;70.05
73383;BME280;61600;48.126;11.542;2022-10-16T03:08:56;95699.00;;;16.20;70.64
73383;BME280;61600;48.126;11.542;2022-10-16T03:11:21;95698.00;;;16.16;70.49
73383;BME280;61600;48.126;11.542;2022-10-16T03:13:47;95703.53;;;16.25;70.23
73383;BME280;61600;48.126;11.542;2022-10-16T03:16:13;95694.47;;;16.24;70.29
73383;BME280;61600;48.126;11.542;2022-10-16T03:18:38;95709.19;;;16.28;70.28
73383;BME280;61600;48.126;11.542;2022-10-16T03:21:04;95698.22;;;16.28;69.76
73383;BME280;61600;48.126;11.542;2022-10-16T03:23:29;95695.94;;;16.30;69.98
73383;BME280;61600;48.126;11.542;2022-10-16T03:25:55;95696.88;;;16.26;69.57
73383;BME280;61600;48.126;11.542;2022-10-16T03:28:21;95695.13;;;16.21;69.65
73383;BME280;61600;48.126;11.542;2022-10-16T03:30:47;95703.03;;;16.23;70.07
73383;BME280;61600;48.126;11.542;2022-10-16T03:33:12;95706.25;;;16.16;70.26
73383;BME280;61600;48.126;11.542;2022-10-16T03:35:38;95700.28;;;16.23;70.18
73383;BME280;61600;48.126;11.542;2022-10-16T03:38:04;95702.06;;;16.27;70.05
73383;BME280;61600;48.126;11.542;2022-10-16T03:40:29;95697.56;;;16.31;69.03
73383;BME280;61600;48.126;11.542;2022-10-16T03:42:57;95702.88;;;16.36;69.50
73383;BME280;61600;48.126;11.542;2022-10-16T03:45:23;95713.69;;;16.33;69.55
73383;BME280;61600;48.126;11.542;2022-10-16T03:47:54;95719.19;;;16.33;68.64
73383;BME280;61600;48.126;11.542;2022-10-16T03:50:20;95715.34;;;16.42;68.22
73383;BME280;61600;48.126;11.542;2022-10-16T03:52:45;95719.91;;;16.56;68.27
73383;BME280;61600;48.126;11.542;2022-10-16T03:55:11;95710.38;;;16.62;68.02
73383;BME280;61600;48.126;11.542;2022-10-16T03:57:37;95701.19;;;16.66;67.58
73383;BME280;61600;48.126;11.542;2022-10-16T04:00:03;95706.03;;;16.69;68.08
73383;BME280;61600;48.126;11.542;2022-10-16T04:02:28;95705.56;;;16.67;68.34
73383;BME280;61600;48.126;11.542;2022-10-16T04:04:54;95705.22;;;16.69;68.56
73383;BME280;61600;48.126;11.542;2022-10-16T04:07:19;95702.63;;;16.72;68.25
73383;BME280;61600;48.126;11.542;2022-10-16T04:09:45;95700.06;;;16.67;68.43
73383;BME280;61600;48.126;11.542;2022-10-16T04:12:11;95698.59;;;16.70;68.66
73383;BME280;61600;48.126;11.542;2022-10-16T04:14:37;95702.81;;;16.67;68.07
73383;BME280;61600;48.126;11.542;2022-10-16T04:17:02;95710.56;;;16.65;68.52
73383;BME280;61600;48.126;11.542;2022-10-16T04:19:28;95698.94;;;16.77;67.90
73383;BME280;61600;48.126;11.542;2022-10-16T04:21:53;95696.50;;;16.75;67.88
73383;BME280;61600;48.126;11.542;2022-10-16T04:24:19;95698.13;;;16.85;67.44
73383;BME280;61600;48.126;11.542;2022-10-16T04:26:44;95701.81;;;16.89;67.43
73383;BME280;61600;48.126;11.542;2022-10-16T04:29:10;95702.16;;;16.79;67.74
73383;BME280;61600;48.126;11.542;2022-10-16T04:31:37;95705.56;;;16.76;68.16
73383;BME280;61600;48.126;11.542;2022-10-16T04:34:02;95702.34;;;16.74;67.22
73383;BME280;61600;48.126;11.542;2022-10-16T04:36:28;95706.06;;;16.78;67.57
73383;BME280;61600;48.126;11.542;2022-10-16T04:38:54;95707.16;;;16.85;67.34
73383;BME280;61600;48.126;11.542;2022-10-16T04:41:19;95709.59;;;16.87;67.11
73383;BME280;61600;48.126;11.542;2022-10-16T04:43:45;95714.94;;;16.92;66.68
73383;BME280;61600;48.126;11.542;2022-10-16T04:46:11;95715.41;;;16.94;66.77
73383;BME280;61600;48.126;11.542;2022-10-16T04:48:36;95720.25;;;16.97;66.91
73383;BME280;61600;48.126;11.542;2022-10-16T04:51:02;95717.69;;;16.92;66.77
73383;BME280;61600;48.126;11.542;2022-10-16T04:53:27;95701.69;;;16.94;66.74
73383;BME280;61600;48.126;11.542;2022-10-16T04:55:53;95705.06;;;16.91;66.39
73383;BME280;61600;48.126;11.542;2022-10-16T04:58:19;95698.13;;;16.93;66.73
73383;BME280;61600;48.126;11.542;2022-10-16T05:00:54;95697.00;;;16.94;67.01
73383;BME280;61600;48.126;11.542;2022-10-16T05:03:20;95702.66;;;16.98;66.55
73383;BME280;61600;48.126;11.542;2022-10-16T05:05:46;95712.19;;;16.92;66.50
73383;BME280;61600;48.126;11.542;2022-10-16T05:08:13;95712.19;;;16.92;66.42
73383;BME280;61600;48.126;11.542;2022-10-16T05:10:40;95714.44;;;16.90;67.01
73383;BME280;61600;48.126;11.542;2022-10-16T05:13:06;95708.63;;;16.91;66.93
73383;BME280;61600;48.126;11.542;2022-10-16T05:15:33;95698.78;;;16.90;66.48
73383;BME280;61600;48.126;11.542;2022-10-16T05:17:58;95704.13;;;16.95;66.46
73383;BME280;61600;48.126;11.542;2022-10-16T05:20:24;95703.47;;;16.98;66.50
73383;BME280;61600;48.126;11.542;2022-10-16T05:22:54;95706.53;;;16.97;66.13
73383;BME280;61600;48.126;11.542;2022-10-16T05:25:20;95711.69;;;16.90;66.43
73383;BME280;61600;48.126;11.542;2022-10-16T05:27:49;95712.66;;;16.85;66.96
73383;BME280;61600;48.126;11.542;2022-10-16T05:30:16;95713.78;;;16.93;66.76
73383;BME280;61600;48.126;11.542;2022-10-16T05:32:46;95713.66;;;16.98;66.42
73383;BME280;61600;48.126;11.542;2022-10-16T05:35:12;95711.72;;;16.98;66.24
73383;BME280;61600;48.126;11.542;2022-10-16T05:37:37;95718.31;;;16.97;66.52
73383;BME280;61600;48.126;11.542;2022-10-16T05:40:03;95723.34;;;16.95;66.62
73383;BME280;61600;48.126;11.542;2022-10-16T05:42:30;95723.81;;;16.97;66.39
73383;BME280;61600;48.126;11.542;2022-10-16T05:44:56;95735.94;;;16.96;66.92
73383;BME280;61600;48.126;11.542;2022-10-16T05:47:21;95738.69;;;16.96;66.71
73383;BME280;61600;48.126;11.542;2022-10-16T05:49:47;95740.63;;;16.96;65.97
73383;BME280;61600;48.126;11.542;2022-10-16T05:52:13;95745.94;;;16.92;66.39
73383;BME280;61600;48.126;11.542;2022-10-16T05:54:38;95744.50;;;16.86;67.22
73383;BME280;61600;48.126;11.542;2022-10-16T05:57:04;95743.88;;;16.81;67.54
73383;BME280;61600;48.126;11.542;2022-10-16T05:59:31;95746.09;;;16.79;66.96
73383;BME280;61600;48.126;11.542;2022-10-16T06:01:57;95741.25;;;16.76;67.45
73383;BME280;61600;48.126;11.542;2022-10-16T06:04:22;95746.94;;;16.71;68.05
73383;BME280;61600;48.126;11.542;2022-10-16T06:06:48;95752.44;;;16.71;67.80
73383;BME280;61600;48.126;11.542;2022-10-16T06:09:14;95750.47;;;16.71;68.07
73383;BME280;61600;48.126;11.542;2022-10-16T06:11:39;95752.44;;;16.71;68.04
73383;BME280;61600;48.126;11.542;2022-10-16T06:14:05;95752.88;;;16.64;68.15
73383;BME280;61600;48.126;11.542;2022-10-16T06:16:35;95759.19;;;16.65;67.87
73383;BME280;61600;48.126;11.542;2022-10-16T06:19:01;95770.00;;;16.61;68.22
73383;BME280;61600;48.126;11.542;2022-10-16T06:21:29;95761.94;;;16.56;68.75
73383;BME280;61600;48.126;11.542;2022-10-16T06:23:56;95766.59;;;16.64;68.43
73383;BME280;61600;48.126;11.542;2022-10-16T06:26:25;95772.28;;;16.59;68.35
73383;BME280;61600;48.126;11.542;2022-10-16T06:28:58;95771.63;;;16.62;67.93
73383;BME280;61600;48.126;11.542;2022-10-16T06:31:24;95774.53;;;16.66;68.54
73383;BME280;61600;48.126;11.542;2022-10-16T06:33:56;95785.38;;;16.71;68.57
73383;BME280;61600;48.126;11.542;2022-10-16T06:36:23;95789.56;;;16.68;67.94
73383;BME280;61600;48.126;11.542;2022-10-16T06:38:49;95789.09;;;16.75;68.27
73383;BME280;61600;48.126;11.542;2022-10-16T06:41:17;95782.47;;;16.67;68.12
73383;BME280;61600;48.126;11.542;2022-10-16T06:43:44;95789.72;;;16.63;69.07
73383;BME280;61600;48.126;11.542;2022-10-16T06:46:12;95795.69;;;16.65;68.99
73383;BME280;61600;48.126;11.542;2022-10-16T06:48:38;95800.06;;;16.66;68.87
73383;BME280;61600;48.126;11.542;2022-10-16T06:51:13;95806.72;;;16.74;68.55
73383;BME280;61600;48.126;11.542;2022-10-16T06:53:42;95806.84;;;16.60;69.26
73383;BME280;61600;48.126;11.542;2022-10-16T06:56:17;95805.53;;;16.58;68.96
73383;BME280;61600;48.126;11.542;2022-10-16T06:58:49;95806.56;;;16.70;68.21
73383;BME280;61600;48.126;11.542;2022-10-16T07:01:16;95814.78;;;16.79;68.62
73383;BME280;61600;48.126;11.542;2022-10-16T07:03:52;95820.94;;;16.76;68.76
73383;BME280;61600;48.126;11.542;2022-10-16T07:06:20;95817.53;;;16.79;68.21
73383;BME280;61600;48.126;11.542;2022-10-16T07:08:47;95821.28;;;16.83;68.27
73383;BME280;61600;48.126;11.542;2022-10-16T07:11:16;95831.28;;;16.79;68.07
73383;BME280;61600;48.126;11.542;2022-10-16T07:13:43;95830.47;;;16.70;68.92
73383;BME280;61600;48.126;11.542;2022-10-16T07:16:15;95831.91;;;16.76;68.84
73383;BME280;61600;48.126;11.542;2022-10-16T07:18:41;95826.28;;;16.81;68.89
73383;BME280;61600;48.126;11.542;2022-10-16T07:21:11;95826.63;;;16.88;68.18
73383;BME280;61600;48.126;11.542;2022-10-16T07:23:37;95822.63;;;17.03;67.64
73383;BME280;61600;48.126;11.542;2022-10-16T07:26:04;95825.34;;;17.03;67.68
73383;BME280;61600;48.126;11.542;2022-10-16T07:28:30;95825.34;;;17.03;68.11
73383;BME280;61600;48.126;11.542;2022-10-16T07:31:01;95837.97;;;17.12;67.16
73383;BME280;61600;48.126;11.542;2022-10-16T07:33:28;95841.34;;;17.18;66.76
73383;BME280;61600;48.126;11.542;2022-10-16T07:35:54;95844.44;;;17.16;66.09
73383;BME280;61600;48.126;11.542;2022-10-16T07:38:20;95844.13;;;17.26;65.88
73383;BME280;61600;48.126;11.542;2022-10-16T07:40:46;95849.63;;;17.35;65.35
73383;BME280;61600;48.126;11.542;2022-10-16T07:43:13;95855.75;;;17.49;64.97
73383;BME280;61600;48.126;11.542;2022-10-16T07:45:49;95852.25;;;17.57;63.78
73383;BME280;61600;48.126;11.542;2022-10-16T07:48:16;95852.38;;;17.78;62.98
73383;BME280;61600;48.126;11.542;2022-10-16T07:50:47;95855.94;;;17.87;62.48
73383;BME280;61600;48.126;11.542;2022-10-16T07:53:14;95856.72;;;17.96;61.59
73383;BME280;61600;48.126;11.542;2022-10-16T07:56:04;95858.63;;;18.21;60.82
73383;BME280;61600;48.126;11.542;2022-10-16T07:58:30;95861.19;;;18.26;60.90
73383;BME280;61600;48.126;11.542;2022-10-16T08:01:02;95862.41;;;18.55;60.15
73383;BME280;61600;48.126;11.542;2022-10-16T08:03:28;95873.06;;;18.65;59.67
73383;BME280;61600;48.126;11.542;2022-10-16T08:05:56;95868.41;;;18.86;59.43
73383;BME280;61600;48.126;11.542;2022-10-16T08:08:22;95868.94;;;18.79;59.50
73383;BME280;61600;48.126;11.542;2022-10-16T08:10:48;95859.22;;;18.82;58.89
73383;BME280;61600;48.126;11.542;2022-10-16T08:13:13;95873.66;;;19.08;58.06
73383;BME280;61600;48.126;11.542;2022-10-16T08:15:41;95875.16;;;19.26;57.99
73383;BME280;61600;48.126;11.542;2022-10-16T08:18:07;95870.59;;;19.30;57.47
73383;BME280;61600;48.126;11.542;2022-10-16T08:20:33;95872.41;;;19.26;57.10
73383;BME280;61600;48.126;11.542;2022-10-16T08:22:59;95871.28;;;19.27;57.00
73383;BME280;61600;48.126;11.542;2022-10-16T08:25:26;95881.00;;;19.54;56.21
73383;BME280;61600;48.126;11.542;2022-10-16T08:27:51;95880.28;;;19.66;56.03
73383;BME280;61600;48.126;11.542;2022-10-16T08:30:19;95881.41;;;19.65;55.93
73383;BME280;61600;48.126;11.542;2022-10-16T08:32:44;95884.38;;;19.80;55.00
73383;BME280;61600;48.126;11.542;2022-10-16T08:35:11;95887.28;;;19.84;55.02
73383;BME280;61600;48.126;11.542;2022-10-16T08:37:38;95887.78;;;19.98;54.04
73383;BME280;61600;48.126;11.542;2022-10-16T08:40:05;95887.97;;;19.93;54.74
73383;BME280;61600;48.126;11.542;2022-10-16T08:43:00;95884.81;;;20.03;54.42
73383;BME280;61600;48.126;11.542;2022-10-16T08:48:29;95892.88;;;20.08;54.64
73383;BME280;61600;48.126;11.542;2022-10-16T08:50:58;95886.66;;;20.32;54.37
73383;BME280;61600;48.126;11.542;2022-10-16T08:53:33;95902.91;;;20.46;54.41
73383;BME280;61600;48.126;11.542;2022-10-16T08:56:03;95899.22;;;20.41;54.53
73383;BME280;61600;48.126;11.542;2022-10-16T08:58:30;95919.09;;;20.68;53.65
73383;BME280;61600;48.126;11.542;2022-10-16T09:00:59;95907.00;;;20.72;52.96
73383;BME280;61600;48.126;11.542;2022-10-16T09:03:48;95919.34;;;20.87;52.48
73383;BME280;61600;48.126;11.542;2022-10-16T09:23:31;95909.56;;;21.50;50.56
73383;BME280;61600;48.126;11.542;2022-10-16T09:25:59;95914.50;;;21.81;49.93
73383;BME280;61600;48.126;11.542;2022-10-16T09:28:25;95918.41;;;21.80;49.73
73383;BME280;61600;48.126;11.542;2022-10-16T09:30:56;95916.19;;;21.98;49.78
73383;BME280;61600;48.126;11.542;2022-10-16T09:33:32;95919.59;;;22.07;49.61
73383;BME280;61600;48.126;11.542;2022-10-16T09:35:59;95912.09;;;22.07;49.56
73383;BME280;61600;48.126;11.542;2022-10-16T09:38:33;95911.50;;;22.14;49.67
73383;BME280;61600;48.126;11.542;2022-10-16T09:41:20;95914.66;;;22.12;49.75
73383;BME280;61600;48.126;11.542;2022-10-16T09:43:52;95911.09;;;22.27;48.92
73383;BME280;61600;48.126;11.542;2022-10-16T09:46:25;95917.53;;;22.31;49.04
73383;BME280;61600;48.126;11.542;2022-10-16T09:48:54;95912.19;;;22.38;48.61
73383;BME280;61600;48.126;11.542;2022-10-16T09:51:25;95926.03;;;22.66;48.23
73383;BME280;61600;48.126;11.542;2022-10-16T09:53:56;95925.38;;;22.85;47.85
73383;BME280;61600;48.126;11.542;2022-10-16T09:56:30;95928.25;;;22.73;46.97
73383;BME280;61600;48.126;11.542;2022-10-16T09:59:10;95929.06;;;22.61;48.27
73383;BME280;61600;48.126;11.542;2022-10-16T10:01:38;95924.84;;;23.11;47.00
73383;BME280;61600;48.126;11.542;2022-10-16T10:04:05;95930.56;;;23.33;46.63
73383;BME280;61600;48.126;11.542;2022-10-16T10:06:53;95928.50;;;23.30;46.70
73383;BME280;61600;48.126;11.542;2022-10-16T10:09:25;95936.09;;;23.33;46.47
73383;BME280;61600;48.126;11.542;2022-10-16T10:11:56;95915.31;;;23.59;46.04
73383;BME280;61600;48.126;11.542;2022-10-16T10:14:34;95923.50;;;23.36;45.58
73383;BME280;61600;48.126;11.542;2022-10-16T10:19:57;95920.47;;;23.76;44.75
73383;BME280;61600;48.126;11.542;2022-10-16T10:28:04;95924.75;;;24.24;43.67
73383;BME280;61600;48.126;11.542;2022-10-16T10:36:29;95922.28;;;24.61;43.64
73383;BME280;61600;48.126;11.542;2022-10-16T10:39:16;95926.59;;;24.58;41.96
73383;BME280;61600;48.126;11.542;2022-10-16T10:42:08;95915.06;;;24.79;41.61
73383;BME280;61600;48.126;11.542;2022-10-16T10:45:03;95921.94;;;25.04;42.58
73383;BME280;61600;48.126;11.542;2022-10-16T10:47:47;95920.13;;;25.15;41.14
73383;BME280;61600;48.126;11.542;2022-10-16T10:53:31;95922.41;;;25.32;39.88
73383;BME280;61600;48.126;11.542;2022-10-16T11:01:08;95928.50;;;25.64;40.21
73383;BME280;61600;48.126;11.542;2022-10-16T11:06:55;95924.38;;;25.32;36.54
73383;BME280;61600;48.126;11.542;2022-10-16T11:09:35;95920.63;;;25.70;37.16
73383;BME280;61600;48.126;11.542;2022-10-16T11:12:21;95922.09;;;25.90;35.83
73383;BME280;61600;48.126;11.542;2022-10-16T11:14:58;95919.31;;;25.90;35.29
73383;BME280;61600;48.126;11.542;2022-10-16T11:17:31;95922.34;;;26.08;36.01
73383;BME280;61600;48.126;11.542;2022-10-16T11:20:14;95917.38;;;26.20;36.12
73383;BME280;61600;48.126;11.542;2022-10-16T11:25:30;95918.91;;;26.48;35.61
73383;BME280;61600;48.126;11.542;2022-10-16T11:28:13;95912.31;;;26.63;36.34
73383;BME280;61600;48.126;11.542;2022-10-16T11:30:54;95917.66;;;26.42;35.00
73383;BME280;61600;48.126;11.542;2022-10-16T11:36:16;95913.59;;;26.72;33.05
73383;BME280;61600;48.126;11.542;2022-10-16T11:41:22;95903.59;;;26.68;32.69
73383;BME280;61600;48.126;11.542;2022-10-16T11:46:49;95903.03;;;26.89;33.28
73383;BME280;61600;48.126;11.542;2022-10-16T11:49:21;95906.84;;;27.10;33.85
73383;BME280;61600;48.126;11.542;2022-10-16T11:57:14;95908.34;;;27.01;33.28
73383;BME280;61600;48.126;11.542;2022-10-16T12:02:38;95901.47;;;26.58;33.55
73383;BME280;61600;48.126;11.542;2022-10-16T12:05:33;95909.34;;;26.82;33.70
73383;BME280;61600;48.126;11.542;2022-10-16T12:08:12;95908.09;;;26.79;33.47
73383;BME280;61600;48.126;11.542;2022-10-16T12:10:41;95905.03;;;26.92;32.83
73383;BME280;61600;48.126;11.542;2022-10-16T12:13:35;95903.59;;;26.68;33.50
73383;BME280;61600;48.126;11.542;2022-10-16T12:16:27;95913.31;;;26.81;33.59
73383;BME280;61600;48.126;11.542;2022-10-16T12:21:35;95903.00;;;27.29;31.88
73383;BME280;61600;48.126;11.542;2022-10-16T12:24:02;95899.06;;;26.90;31.94
73383;BME280;61600;48.126;11.542;2022-10-16T12:26:33;95907.78;;;27.28;32.64
73383;BME280;61600;48.126;11.542;2022-10-16T12:31:56;95903.94;;;27.44;30.90
73383;BME280;61600;48.126;11.542;2022-10-16T12:34:43;95905.38;;;27.74;31.68
73383;BME280;61600;48.126;11.542;2022-10-16T12:39:38;95895.00;;;27.75;32.18
73383;BME280;61600;48.126;11.542;2022-10-16T12:42:17;95904.47;;;27.60;32.13
73383;BME280;61600;48.126;11.542;2022-10-16T12:44:50;95905.66;;;28.20;31.38
73383;BME280;61600;48.126;11.542;2022-10-16T12:49:52;95896.56;;;28.45;31.38
73383;BME280;61600;48.126;11.542;2022-10-16T12:52:35;95899.75;;;28.43;31.33
73383;BME280;61600;48.126;11.542;2022-10-16T12:55:03;95892.66;;;28.63;31.27
73383;BME280;61600;48.126;11.542;2022-10-16T12:57:57;95889.94;;;28.95;30.59
73383;BME280;61600;48.126;11.542;2022-10-16T13:03:43;95889.97;;;29.20;31.15
73383;BME280;61600;48.126;11.542;2022-10-16T13:06:36;95887.19;;;29.23;30.32
73383;BME280;61600;48.126;11.542;2022-10-16T13:09:31;95895.97;;;29.25;31.66
73383;BME280;61600;48.126;11.542;2022-10-16T13:12:37;95892.00;;;29.62;30.75
73383;BME280;61600;48.126;11.542;2022-10-16T13:15:24;95888.75;;;29.81;30.35
73383;BME280;61600;48.126;11.542;2022-10-16T13:18:06;95888.72;;;30.02;30.64
73383;BME280;61600;48.126;11.542;2022-10-16T13:21:20;95887.53;;;30.10;30.02
73383;BME280;61600;48.126;11.542;2022-10-16T13:24:28;95888.69;;;30.20;30.46
73383;BME280;61600;48.126;11.542;2022-10-16T13:29:42;95892.66;;;30.26;29.35
73383;BME280;61600;48.126;11.542;2022-10-16T13:32:11;95897.03;;;30.45;30.26
73383;BME280;61600;48.126;11.542;2022-10-16T13:35:00;95890.22;;;30.39;29.69
73383;BME280;61600;48.126;11.542;2022-10-16T13:37:26;95891.84;;;30.40;29.64
73383;BME280;61600;48.126;11.542;2022-10-16T13:40:28;95884.16;;;30.51;28.79
73383;BME280;61600;48.126;11.542;2022-10-16T13:42:54;95888.09;;;30.71;29.25
73383;BME280;61600;48.126;11.542;2022-10-16T13:45:24;95886.13;;;30.68;28.83
73383;BME280;61600;48.126;11.542;2022-10-16T13:48:04;95898.06;;;30.83;28.22
73383;BME280;61600;48.126;11.542;2022-10-16T13:50:31;95892.50;;;30.72;28.85
73383;BME280;61600;48.126;11.542;2022-10-16T13:53:30;95890.75;;;31.03;27.84
73383;BME280;61600;48.126;11.542;2022-10-16T13:55:49;95896.25;;;31.20;27.64
73383;BME280;61600;48.126;11.542;2022-10-16T13:58:18;95896.66;;;31.19;27.40
73383;BME280;61600;48.126;11.542;2022-10-16T14:00:55;95906.63;;;31.27;27.47
73383;BME280;61600;48.126;11.542;2022-10-16T14:03:22;95899.22;;;31.54;26.92
73383;BME280;61600;48.126;11.542;2022-10-16T14:06:00;95901.66;;;31.49;25.54
73383;BME280;61600;48.126;11.542;2022-10-16T14:08:45;95909.69;;;31.47;26.52
73383;BME280;61600;48.126;11.542;2022-10-16T14:11:23;95896.31;;;31.65;25.90
73383;BME280;61600;48.126;11.542;2022-10-16T14:13:53;95905.50;;;31.73;25.27
73383;BME280;61600;48.126;11.542;2022-10-16T14:16:22;95902.66;;;31.73;25.09
73383;BME280;61600;48.126;11.542;2022-10-16T14:19:02;95899.28;;;31.88;26.15
73383;BME280;61600;48.126;11.542;2022-10-16T14:21:29;95904.56;;;31.86;25.59
73383;BME280;61600;48.126;11.542;2022-10-16T14:23:55;95904.84;;;31.95;26.28
73383;BME280;61600;48.126;11.542;2022-10-16T14:26:41;95898.34;;;31.61;25.30
73383;BME280;61600;48.126;11.542;2022-10-16T14:29:13;95902.00;;;31.58;25.44
73383;BME280;61600;48.126;11.542;2022-10-16T14:31:39;95899.97;;;31.62;25.08
73383;BME280;61600;48.126;11.542;2022-10-16T14:34:29;95909.56;;;31.64;26.08
73383;BME280;61600;48.126;11.542;2022-10-16T14:37:26;95899.19;;;31.58;26.01
73383;BME280;61600;48.126;11.542;2022-10-16T14:39:56;95902.03;;;31.51;26.16
73383;BME280;61600;48.126;11.542;2022-10-16T14:42:24;95903.69;;;31.45;26.25
73383;BME280;61600;48.126;11.542;2022-10-16T14:44:56;95892.06;;;31.39;25.64
73383;BME280;61600;48.126;11.542;2022-10-16T14:47:25;95897.03;;;31.21;27.10